Main page
METAR-TAF:

METAR-TAF

Airports :

De Kooy Airfield

Den Helder, Netherlands

latitude: 52-55N, longitude: 004-47E, elevation: 0 m

Current weather observation

The report was made 28 minutes ago, at 11:05 UTC
Wind 15 kt from the West/Southwest, varying between South and West
Temperature 21°C
Humidity 83%
Pressure 1017 hPa
Visibility 10 km or more
Scattered clouds at a height of 1200 ft
Broken clouds at a height of 1500 ft
Broken clouds at a height of 1900 ft
Few clouds at a height of 1600 ft
Broken clouds at a height of 30000 ft

METAR: EHKD 151105Z AUTO 23015KT 190V260 9999 SCT012 BKN015 BKN019 21/18 Q1017 GRN 24015KT 9999 FEW016 BKN300 TEMPO SCT016 BKN300

Time: 13:33 (11:33 UTC)

Forecast

The report was made 3 hours and 25 minutes ago, at 08:08 UTC
Forecast valid from 15 at 09 UTC to 15 at 21 UTC
Wind 12 kt from the Southwest with gusts up to 22 kt
Visibility 10 km or more
Scattered clouds at a height of 2000 ft

TAF: EHKD 150808Z 1509/1521 23012G22KT 9999 SCT020

Weather observations and forecasts of more than 4000 airports (METAR and TAF reports).

The available stations are represented by yellow and red dots on the map.

Hover mouse over dot to see the name of the station.

Then click to see weather observations and forecasts.

To change the map : click on the green buttons with a black cross to zoom in, on the green button with a dash to zoom out, or on the green arrows for adjacent maps.


METAR-TAF: